Laurent Verva

Laurent Verva

Statistiques 2026

  • Courses courues : 42
  • Nb de victoires : -
  • Nb de places : 1
  • Écart gagnant : 143
  • Réussite à la gagne : -
  • Réussite à la place : 2%
Musique : 0a 8a 4a 6a 6a 0a 5a 5a Da 2a 9a 6a 5a Da 6a 0a 7a 4a
DateRangCatégorieAlloc.Dist.HippodromeChevalRed. KmSpé.
17/04/15 D Trot 15 000€ 2 400m Amiens Begum du Bouffey Attelé
24/04/15 8 Trot 15 000€ 2 400m Amiens Borneo de Bouteau 1'16"8 Attelé
24/04/15 7 Trot 16 000€ 2 900m Amiens Ariaka 1'18"0 Attelé
24/04/15 7 Trot 15 000€ 2 400m Amiens Belle de Neulliac 1'17"1 Attelé
24/04/15 9 Trot 15 000€ 2 400m Amiens Bella Jet 1'19"5 Attelé
24/04/15 2 Trot 15 000€ 2 400m Amiens Venus du Rosay 1'15"5 Attelé
15/05/15 D Trot 15 000€ 2 400m Amiens Begum du Bouffey Attelé
15/05/15 0 Trot 16 000€ 2 900m Amiens Arley d'heripre Attelé
26/05/15 8 Trot 20 000€ 2 400m Amiens Borneo de Bouteau 1'16"7 Attelé
06/03/19 8 Trot 16 000€ 2 400m Amiens Fayette Tilly 1'18"0 Attelé lire

Après avoir bien figuré, a complètement cédé pour finir.

24/03/19 4 Trot 15 000€ 2 900m Amiens Espoir des Ventes 1'17"7 Attelé
24/03/19 D Trot 13 000€ 2 400m Amiens Falco d'Alci Attelé
27/04/19 0 Trot 13 000€ 2 400m Amiens Falco d'Alci Attelé
27/04/19 8 Trot 17 000€ 2 400m Amiens Dario de la Besvre 1'16"0 Attelé
27/04/19 5 Trot 20 000€ 2 400m Amiens Au Temps Dubonheur 1'14"3 Attelé
27/04/19 6 Trot 17 000€ 2 900m Amiens Emile de Jal 1'18"2 Attelé
18/05/19 D Trot 13 000€ 2 400m Amiens Frivole d'Arbaz Attelé
27/05/19 3 Trot 18 000€ 2 400m Amiens Fortune de Cerisy 1'17"1 Attelé lire

Après avoir figuré, est venue prendre la troisième place près du but.

01/06/19 D Trot 13 000€ 2 400m Amiens Fysalia Attelé
11/06/19 5 Trot 16 000€ 2 400m Amiens Felinara 1'17"1 Attelé
11/06/19 2 Trot 20 000€ 2 400m Amiens Daisy de la Folie 1'15"2 Attelé
06/07/19 D Trot 13 000€ 2 400m Amiens Gatoune de l'Ancre Attelé
06/07/19 4 Trot 12 000€ 2 900m Amiens Filae des Salines 1'18"5 Attelé
06/07/19 3 Trot 12 000€ 2 900m Amiens Filou de Fromiee 1'18"5 Attelé
24/07/19 5 Trot 19 000€ 2 400m Amiens Daisy de la Folie 1'15"4 Attelé
24/07/19 3 Trot 17 000€ 2 400m Amiens Fortune de Cerisy 1'17"2 Attelé
03/08/19 6 Trot 22 000€ 2 900m Amiens Au Temps Dubonheur 1'16"5 Attelé
03/08/19 7 Trot 13 000€ 2 400m Amiens Gnaque 1'18"1 Attelé
03/08/19 0 Trot 17 000€ 2 925m Amiens Eros In Love Attelé
03/08/19 8 Trot 13 000€ 2 400m Amiens Felinara 1'17"5 Attelé
03/08/19 4 Trot 13 000€ 2 400m Amiens Falco d'Alci 1'17"1 Attelé
04/09/19 8 Trot 17 000€ 2 900m Amiens Dauphine d'Alci 1'17"3 Attelé
05/10/19 2 Trot 13 000€ 2 400m Amiens Gourmande 1'17"5 Attelé
05/10/19 9 Trot 17 000€ 2 900m Amiens Daisy de la Folie 1'18"0 Attelé
18/10/19 3 Trot 14 000€ 2 400m Amiens Heroica 1'19"2 Attelé
18/10/19 0 Trot 17 000€ 2 400m Amiens Gourmande Attelé
18/10/19 6 Trot 17 000€ 2 400m Amiens Enieme Charm 1'14"5 Attelé
26/10/19 2 Trot 15 000€ 2 900m Amiens Etoile Dubonheur 1'16"2 Attelé
26/10/19 7 Trot 13 000€ 2 400m Amiens Feu des Pres 1'16"2 Attelé
26/10/19 7 Trot 13 000€ 2 400m Amiens Fonceuse du Biston 1'16"3 Attelé
26/10/19 3 Trot 22 000€ 2 900m Amiens Diego du Houlet 1'15"5 Attelé
01/12/19 D Trot 13 000€ 2 900m Amiens Gelina de Piquet Attelé
01/12/19 D Trot 11 000€ 2 400m Amiens Hello Girl Attelé
01/12/19 4 Trot 22 000€ 2 900m Amiens Buxus Calendes 1'16"4 Attelé
01/12/19 4 Trot 13 000€ 2 900m Amiens Flashback Syga 1'18"6 Attelé
01/12/19 D Trot 13 000€ 2 900m Amiens Fille des Marais Attelé
01/12/19 6 Trot 17 000€ 2 400m Amiens Ethano de Bouteau 1'15"9 Attelé
11/12/19 0 Trot 23 000€ 2 925m Amiens Buxus Calendes Attelé
11/12/19 6 Trot 15 000€ 2 400m Amiens Felinara 1'16"2 Attelé
17/12/19 5 Trot 15 000€ 2 400m Amiens Feu des Pres 1'15"9 Attelé